Time;durP1;ratioP1;P1;durP2;ratioP2;P2;SDS_P1;SDS_P2;PMS_P1;PMS_P2;Temp;Humidity;BMP_temperature;BMP_pressure;BME280_temperature;BME280_humidity;BME280_pressure;Samples;Min_cycle;Max_cycle;Signal;HPM_P1;HPM_P2
2021/09/18 00:02:09;;;;;;;14.07;11.53;;;;;;;15.65;95.19;100005.46;1736438;82;27466;-76
2021/09/18 00:04:36;;;;;;;13.18;11.28;;;;;;;15.64;95.37;100003.28;1711286;83;25853;-76
2021/09/18 00:07:03;;;;;;;15.55;11.80;;;;;;;15.66;95.37;100009.80;1646869;83;26331;-76
2021/09/18 00:09:31;;;;;;;15.93;11.05;;;;;;;15.64;95.31;100000.58;1690600;83;26695;-76
2021/09/18 00:11:58;;;;;;;13.72;10.95;;;;;;;15.61;95.26;100004.29;1719579;83;25808;-76
2021/09/18 00:14:25;;;;;;;10.78;9.43;;;;;;;15.57;95.32;100004.47;1671315;83;28310;-76
2021/09/18 00:16:52;;;;;;;11.10;9.38;;;;;;;15.57;95.50;99999.87;1636597;83;25851;-76
2021/09/18 00:19:19;;;;;;;14.85;11.73;;;;;;;15.58;95.55;100006.09;1665657;83;26531;-76
2021/09/18 00:21:47;;;;;;;13.93;9.90;;;;;;;15.58;95.69;100004.22;1726190;83;26236;-76
2021/09/18 00:24:14;;;;;;;12.85;9.23;;;;;;;15.58;95.70;100006.92;1704011;83;25924;-76
2021/09/18 00:26:41;;;;;;;10.15;8.85;;;;;;;15.60;95.79;100006.68;1693601;83;27464;-76
2021/09/18 00:29:08;;;;;;;10.88;9.50;;;;;;;15.59;95.87;100003.16;1688194;83;25912;-75
2021/09/18 00:31:36;;;;;;;11.45;9.38;;;;;;;15.61;96.00;100005.09;1706181;83;25844;-76
2021/09/18 00:34:03;;;;;;;11.45;8.80;;;;;;;15.63;95.96;100002.17;1724598;82;25882;-76
2021/09/18 00:36:30;;;;;;;10.38;9.05;;;;;;;15.65;95.93;99996.02;1668596;83;25754;-76
2021/09/18 00:38:57;;;;;;;12.30;9.68;;;;;;;15.65;95.94;100000.89;1694298;83;27451;-76
2021/09/18 00:41:24;;;;;;;10.40;8.70;;;;;;;15.67;95.99;99996.60;1734428;82;25887;-76
2021/09/18 00:43:55;;;;;;;11.85;8.63;;;;;;;15.67;95.89;99997.95;1709885;82;26072;-76
2021/09/18 00:46:24;;;;;;;12.23;8.73;;;;;;;15.66;95.88;99999.82;1694325;83;25774;-76
2021/09/18 00:48:51;;;;;;;11.73;8.68;;;;;;;15.70;96.07;99999.64;1690000;83;25953;-76
2021/09/18 00:51:19;;;;;;;9.70;8.50;;;;;;;15.72;96.05;100001.58;1725945;83;27031;-76
2021/09/18 00:53:47;;;;;;;11.43;8.60;;;;;;;15.74;96.01;100001.37;1710094;83;25801;-76
2021/09/18 00:56:17;;;;;;;12.55;8.55;;;;;;;15.76;96.07;99999.25;1668742;83;25804;-76
2021/09/18 00:58:44;;;;;;;12.75;9.60;;;;;;;15.78;96.03;100005.23;1694473;83;25818;-76
2021/09/18 01:01:11;;;;;;;11.65;8.38;;;;;;;15.76;95.94;99994.65;1726253;83;25921;-76
2021/09/18 01:03:43;;;;;;;11.10;8.38;;;;;;;15.76;95.97;99997.34;1667584;83;27421;-75
2021/09/18 01:06:10;;;;;;;10.88;8.08;;;;;;;15.76;96.00;100000.60;1725947;83;25849;-76
2021/09/18 01:08:38;;;;;;;11.75;9.85;;;;;;;15.74;96.03;100002.16;1709926;82;25853;-76
2021/09/18 01:11:05;;;;;;;10.85;9.03;;;;;;;15.74;96.05;99998.11;1646585;83;26365;-75
2021/09/18 01:13:34;;;;;;;10.98;8.73;;;;;;;15.73;96.10;99996.48;1691870;83;25954;-76
2021/09/18 01:16:01;;;;;;;9.78;8.45;;;;;;;15.72;96.20;99998.88;1712181;83;27446;-76
2021/09/18 01:18:29;;;;;;;13.93;8.95;;;;;;;15.71;96.25;99997.77;1693900;83;25802;-76
2021/09/18 01:20:56;;;;;;;10.68;9.03;;;;;;;15.71;96.29;100003.17;1696614;82;26143;-76
2021/09/18 01:23:23;;;;;;;9.95;8.85;;;;;;;15.73;96.38;99987.03;1694178;83;25884;-76
2021/09/18 01:25:51;;;;;;;8.40;7.42;;;;;;;15.75;96.30;99991.67;1726309;83;25920;-76
2021/09/18 01:28:19;;;;;;;10.63;8.13;;;;;;;15.75;96.33;99988.97;1711431;83;28121;-76
2021/09/18 01:30:46;;;;;;;13.43;9.40;;;;;;;15.72;96.42;99981.33;1672402;83;25902;-76
2021/09/18 01:33:13;;;;;;;13.32;9.25;;;;;;;15.71;96.37;99979.70;1693936;82;25849;-76
2021/09/18 01:35:40;;;;;;;13.03;9.43;;;;;;;15.73;96.54;99978.11;1689089;83;25932;-76
2021/09/18 01:38:08;;;;;;;10.45;8.23;;;;;;;15.74;96.52;99978.41;1693249;83;26499;-76
2021/09/18 01:40:43;;;;;;;11.20;9.28;;;;;;;15.73;96.52;99978.94;1701969;83;28614;-76
2021/09/18 01:43:11;;;;;;;11.70;9.25;;;;;;;15.73;96.61;99980.28;1646891;84;25369;-76
2021/09/18 01:45:39;;;;;;;11.40;9.83;;;;;;;15.74;96.65;99974.36;1680865;83;25675;-76
2021/09/18 01:48:13;;;;;;;11.88;8.78;;;;;;;15.73;96.67;99973.53;1704216;83;25789;-76
2021/09/18 01:50:48;;;;;;;12.50;9.93;;;;;;;15.74;96.71;99971.66;1664246;83;26212;-75
2021/09/18 01:53:17;;;;;;;13.68;9.70;;;;;;;15.74;96.78;99969.76;1690288;83;28139;-76
2021/09/18 01:55:46;;;;;;;11.73;9.80;;;;;;;15.74;96.75;99968.41;1726169;83;26436;-76
2021/09/18 01:58:13;;;;;;;14.75;9.95;;;;;;;15.75;96.86;99966.02;1666934;83;25935;-76
2021/09/18 02:00:45;;;;;;;10.48;8.85;;;;;;;15.76;96.80;99961.45;1687791;83;25855;-75
2021/09/18 02:03:12;;;;;;;12.15;9.88;;;;;;;15.76;96.75;99966.30;1656827;83;25766;-76
2021/09/18 02:05:40;;;;;;;11.22;9.13;;;;;;;15.76;96.81;99959.55;1719894;82;28211;-76
2021/09/18 02:08:07;;;;;;;12.58;9.38;;;;;;;15.76;96.89;99960.89;1716202;83;26481;-76
2021/09/18 02:10:36;;;;;;;11.83;9.95;;;;;;;15.76;96.88;99960.09;1672140;83;26505;-76
2021/09/18 02:13:07;;;;;;;11.53;9.35;;;;;;;15.74;96.89;99952.21;1694497;83;25916;-76
2021/09/18 02:15:35;;;;;;;12.33;9.50;;;;;;;15.76;96.93;99954.70;1720365;82;25896;-76
2021/09/18 02:18:03;;;;;;;12.88;9.83;;;;;;;15.79;97.00;99957.73;1700587;82;28331;-76
2021/09/18 02:20:31;;;;;;;12.63;9.80;;;;;;;15.79;97.00;99957.73;1667656;82;25919;-76
2021/09/18 02:22:58;;;;;;;13.62;9.60;;;;;;;15.79;96.97;99952.86;1681945;82;25788;-76
2021/09/18 02:25:27;;;;;;;15.45;10.85;;;;;;;15.80;96.98;99953.16;1660644;82;26156;-76
2021/09/18 02:27:54;;;;;;;15.38;10.65;;;;;;;15.81;96.93;99954.79;1680215;83;25899;-76
2021/09/18 02:30:26;;;;;;;12.85;10.60;;;;;;;15.82;96.89;99954.58;1704150;83;27459;-76
2021/09/18 02:32:54;;;;;;;11.90;10.05;;;;;;;15.83;96.90;99956.20;1681618;83;25832;-76
2021/09/18 02:35:23;;;;;;;15.15;10.98;;;;;;;15.83;96.89;99950.80;1677935;83;25868;-76
2021/09/18 02:37:53;;;;;;;13.05;10.23;;;;;;;15.85;96.88;99955.44;1707102;83;26058;-76
2021/09/18 02:40:23;;;;;;;13.60;10.98;;;;;;;15.85;96.76;99950.03;1709156;83;25887;-77
2021/09/18 02:42:55;;;;;;;13.83;10.95;;;;;;;15.85;96.73;99949.20;1657889;83;27475;-76
2021/09/18 02:45:23;;;;;;;11.43;9.95;;;;;;;15.81;96.81;99943.98;1656840;83;26536;-76
2021/09/18 02:47:51;;;;;;;11.90;10.40;;;;;;;15.77;96.79;99948.22;1701386;82;26561;-76
2021/09/18 02:50:21;;;;;;;12.93;10.63;;;;;;;15.73;96.82;99942.48;1707739;83;25743;-76
2021/09/18 02:52:48;;;;;;;11.30;9.75;;;;;;;15.74;97.01;99946.81;1654268;83;25860;-76
2021/09/18 02:55:16;;;;;;;11.65;10.25;;;;;;;15.72;96.90;99952.14;1701825;83;27428;-75
2021/09/18 02:57:43;;;;;;;12.93;10.05;;;;;;;15.69;96.99;99948.06;1706336;82;26033;-76
2021/09/18 03:00:12;;;;;;;10.95;8.88;;;;;;;15.67;97.09;99943.95;1702293;83;25593;-76
2021/09/18 03:02:40;;;;;;;10.03;7.65;;;;;;;15.66;97.12;99940.94;1657567;83;26211;-75
2021/09/18 03:05:09;;;;;;;9.65;7.53;;;;;;;15.65;97.18;99936.61;1655238;83;25877;-76
2021/09/18 03:07:37;;;;;;;9.73;7.50;;;;;;;15.64;97.16;99938.48;1705768;83;27508;-75
2021/09/18 03:10:06;;;;;;;11.60;8.80;;;;;;;15.64;97.20;99930.39;1706691;83;25764;-75
2021/09/18 03:12:34;;;;;;;8.85;7.70;;;;;;;15.64;97.23;99930.39;1657264;83;25850;-76
2021/09/18 03:15:01;;;;;;;9.55;7.03;;;;;;;15.63;97.18;99926.59;1679030;82;25813;-76
2021/09/18 03:17:28;;;;;;;7.72;6.58;;;;;;;15.63;97.32;99925.23;1727232;82;25812;-76
2021/09/18 03:19:56;;;;;;;7.75;5.87;;;;;;;15.63;97.31;99934.13;1727666;82;28303;-76
2021/09/18 03:22:23;;;;;;;6.03;5.42;;;;;;;15.62;97.20;99929.80;1673641;82;25874;-76
2021/09/18 03:24:50;;;;;;;5.28;4.65;;;;;;;15.62;97.24;99935.72;1706609;82;25778;-76
2021/09/18 03:27:18;;;;;;;5.92;4.28;;;;;;;15.61;97.35;99936.25;1718308;82;25816;-76
2021/09/18 03:29:45;;;;;;;6.85;4.15;;;;;;;15.60;97.36;99929.74;1722692;82;25964;-75
2021/09/18 03:32:12;;;;;;;4.70;4.20;;;;;;;15.58;97.44;99927.28;1672976;82;27404;-76
2021/09/18 03:34:39;;;;;;;4.85;4.30;;;;;;;15.58;97.63;99929.98;1706266;82;25849;-76
2021/09/18 03:37:07;;;;;;;5.95;5.37;;;;;;;15.60;97.59;99927.04;1727103;82;25962;-76
2021/09/18 03:39:34;;;;;;;5.08;4.60;;;;;;;15.59;97.59;99929.47;1727485;81;25800;-76
2021/09/18 03:42:01;;;;;;;4.25;3.87;;;;;;;15.58;97.54;99932.69;1697840;81;26363;-76
2021/09/18 03:44:28;;;;;;;4.37;3.47;;;;;;;15.60;97.61;99932.44;1679779;83;28137;-75
2021/09/18 03:46:55;;;;;;;7.85;4.17;;;;;;;15.59;97.62;99929.47;1730809;82;25958;-75
2021/09/18 03:49:22;;;;;;;5.00;3.52;;;;;;;15.59;97.62;99933.52;1712575;83;25802;-75
2021/09/18 03:51:49;;;;;;;7.72;5.03;;;;;;;15.58;97.62;99929.98;1682897;83;25748;-75
2021/09/18 03:54:16;;;;;;;5.20;4.70;;;;;;;15.56;97.73;99929.41;1654225;83;25387;-76
2021/09/18 03:56:43;;;;;;;6.67;4.35;;;;;;;15.54;97.75;99930.69;1705327;83;27425;-76
2021/09/18 03:59:10;;;;;;;11.38;6.55;;;;;;;15.55;97.79;99926.91;1713485;83;26302;-76
2021/09/18 04:01:37;;;;;;;3.75;3.30;;;;;;;15.54;97.91;99920.72;1677985;84;25944;-76
2021/09/18 04:04:04;;;;;;;4.65;3.67;;;;;;;15.56;97.92;99925.35;1655591;83;26562;-76
2021/09/18 04:06:32;;;;;;;6.85;4.83;;;;;;;15.55;98.08;99920.99;1712440;83;25821;-76
2021/09/18 04:08:59;;;;;;;7.05;4.70;;;;;;;15.56;97.90;99920.47;1712847;83;27497;-76
2021/09/18 04:11:26;;;;;;;5.62;4.47;;;;;;;15.56;97.89;99927.22;1710948;83;25924;-75
2021/09/18 04:13:53;;;;;;;4.78;3.65;;;;;;;15.56;97.97;99922.66;1654788;83;25891;-75
2021/09/18 04:16:21;;;;;;;8.68;5.53;;;;;;;15.57;97.93;99922.93;1706664;83;25803;-75
2021/09/18 04:18:49;;;;;;;8.13;4.37;;;;;;;15.58;97.95;99923.76;1681413;83;25899;-75
2021/09/18 04:21:16;;;;;;;8.45;6.03;;;;;;;15.58;97.94;99916.48;1714510;82;27570;-76
2021/09/18 04:23:44;;;;;;;4.62;3.90;;;;;;;15.58;97.88;99922.41;1688775;82;26590;-76
2021/09/18 04:26:12;;;;;;;4.55;3.55;;;;;;;15.57;98.04;99922.13;1697699;82;25952;-75
2021/09/18 04:28:39;;;;;;;3.50;3.20;;;;;;;15.56;97.86;99924.52;1722015;83;25769;-75
2021/09/18 04:31:06;;;;;;;3.92;3.62;;;;;;;15.56;97.93;99921.83;1691415;83;26191;-76
2021/09/18 04:33:33;;;;;;;4.80;3.62;;;;;;;15.56;97.81;99920.47;1642201;83;28151;-76
2021/09/18 04:36:01;;;;;;;5.85;3.45;;;;;;;15.53;97.84;99919.58;1720783;83;25818;-76
2021/09/18 04:38:28;;;;;;;5.53;3.75;;;;;;;15.50;97.91;99919.55;1717009;83;25986;-75
2021/09/18 04:40:55;;;;;;;4.55;4.15;;;;;;;15.48;97.93;99920.31;1689355;83;26626;-75
2021/09/18 04:43:23;;;;;;;3.98;3.55;;;;;;;15.46;97.88;99926.48;1674267;83;26026;-75
2021/09/18 04:45:51;;;;;;;3.92;3.35;;;;;;;15.44;97.95;99919.94;1716698;83;27469;-76
2021/09/18 04:48:18;;;;;;;3.80;3.50;;;;;;;15.43;97.97;99922.36;1721112;83;26121;-76
2021/09/18 04:50:45;;;;;;;3.80;3.50;;;;;;;15.42;97.95;99923.89;1695077;83;26728;-76
2021/09/18 04:53:12;;;;;;;3.95;3.50;;;;;;;15.40;98.04;99920.61;1640230;83;26347;-76
2021/09/18 04:55:39;;;;;;;4.03;3.20;;;;;;;15.41;98.05;99932.54;1716817;83;25868;-76
2021/09/18 04:58:06;;;;;;;3.50;3.20;;;;;;;15.38;98.03;99930.81;1683215;83;27474;-75
2021/09/18 05:00:35;;;;;;;4.20;3.72;;;;;;;15.39;98.13;99934.66;1695692;83;25954;-76
2021/09/18 05:03:02;;;;;;;4.67;3.87;;;;;;;15.39;98.16;99936.00;1636173;83;25829;-76
2021/09/18 05:05:29;;;;;;;4.37;3.98;;;;;;;15.37;98.14;99939.47;1721108;83;25776;-75
2021/09/18 05:07:57;;;;;;;3.95;3.65;;;;;;;15.37;98.21;99946.21;1720473;83;26414;-75
2021/09/18 05:10:24;;;;;;;2.92;2.72;;;;;;;15.37;98.21;99944.86;1697420;83;27471;-76
2021/09/18 05:12:51;;;;;;;3.65;2.60;;;;;;;15.35;98.04;99943.45;1669524;83;25928;-75
2021/09/18 05:15:18;;;;;;;2.87;2.45;;;;;;;15.29;97.97;99958.67;1712079;83;25755;-76
2021/09/18 05:17:45;;;;;;;3.00;2.27;;;;;;;15.14;97.35;99965.04;1717070;83;25746;-75
2021/09/18 05:20:13;;;;;;;5.85;2.70;;;;;;;14.96;97.26;99958.39;1696681;83;25853;-76
2021/09/18 06:11:09;;;;;;;16.73;10.55;;;;;;;13.86;98.18;100016.09;1805394;78;25772;-75
2021/09/18 06:13:36;;;;;;;14.35;9.13;;;;;;;13.77;98.40;100009.89;1764714;79;25808;-76
2021/09/18 06:16:04;;;;;;;15.00;9.70;;;;;;;13.75;98.69;100016.81;1768816;80;27440;-76
2021/09/18 06:18:32;;;;;;;14.90;9.23;;;;;;;13.73;98.64;100018.08;1719157;80;27562;-75
2021/09/18 06:21:03;;;;;;;12.00;9.03;;;;;;;13.72;98.85;100010.55;1715253;79;26295;-75
2021/09/18 06:23:30;;;;;;;15.43;9.58;;;;;;;13.74;98.90;100015.19;1749824;81;25893;-76
2021/09/18 06:25:58;;;;;;;12.30;9.33;;;;;;;13.73;98.66;100018.08;1718156;79;25850;-76
2021/09/18 06:28:25;;;;;;;12.73;9.15;;;;;;;13.72;98.77;100018.62;1694547;81;28185;-75
2021/09/18 06:30:53;;;;;;;14.30;8.78;;;;;;;13.72;98.81;100017.28;1689719;81;25944;-75
2021/09/18 06:33:20;;;;;;;16.77;9.53;;;;;;;13.77;98.79;100025.49;1696112;81;25707;-75
2021/09/18 06:35:47;;;;;;;14.28;9.08;;;;;;;13.81;98.85;100024.00;1746649;79;25891;-76
2021/09/18 06:38:17;;;;;;;11.55;8.40;;;;;;;13.84;98.77;100018.19;1721204;81;25929;-75
2021/09/18 06:40:43;;;;;;;10.70;8.10;;;;;;;13.86;98.73;100025.52;1703626;81;28589;-75
2021/09/18 06:43:10;;;;;;;12.75;8.58;;;;;;;13.88;98.48;100030.67;1771691;79;26479;-76
2021/09/18 06:45:37;;;;;;;14.33;9.25;;;;;;;13.84;98.36;100034.34;1748527;80;25779;-75
2021/09/18 06:48:04;;;;;;;14.38;9.10;;;;;;;13.82;98.29;100032.91;1714221;81;25973;-75
2021/09/18 07:02:03;;;;;;;12.85;6.60;;;;;;;14.33;95.38;100051.47;1746935;79;25621;-75
2021/09/18 07:04:30;;;;;;;7.33;6.28;;;;;;;14.10;95.68;100049.93;1718888;81;26245;-76
2021/09/18 07:06:57;;;;;;;7.83;5.20;;;;;;;13.97;95.86;100050.89;1717613;82;27451;-75
2021/09/18 07:09:24;;;;;;;7.22;5.90;;;;;;;13.87;96.42;100061.34;1667433;83;25825;-75
2021/09/18 07:11:51;;;;;;;7.95;5.40;;;;;;;13.81;96.51;100054.96;1665980;83;25848;-76
2021/09/18 07:14:18;;;;;;;7.12;5.22;;;;;;;13.78;96.47;100057.28;1714837;82;25899;-76
2021/09/18 07:16:45;;;;;;;9.70;6.05;;;;;;;13.75;96.93;100054.50;1692161;83;25781;-75
2021/09/18 07:19:13;;;;;;;8.20;6.55;;;;;;;13.72;97.07;100059.00;1659212;83;27521;-75
2021/09/18 07:21:40;;;;;;;8.60;6.47;;;;;;;13.67;96.58;100061.52;1710256;82;25831;-75
2021/09/18 07:24:07;;;;;;;9.38;7.05;;;;;;;13.61;96.64;100060.22;1711802;83;25808;-76
2021/09/18 07:26:36;;;;;;;10.40;6.70;;;;;;;13.56;96.66;100062.73;1728031;82;26243;-75
2021/09/18 07:29:04;;;;;;;9.75;7.90;;;;;;;13.53;96.57;100063.19;1663911;83;26031;-75
2021/09/18 07:31:31;;;;;;;8.43;6.95;;;;;;;13.44;96.59;100069.36;1665728;83;27433;-75
2021/09/18 07:33:58;;;;;;;10.70;7.50;;;;;;;13.40;96.89;100070.84;1709537;83;25912;-76
2021/09/18 07:36:25;;;;;;;8.13;7.17;;;;;;;13.40;97.08;100070.01;1688353;83;25913;-75
2021/09/18 07:38:52;;;;;;;11.12;8.20;;;;;;;13.37;96.66;100073.95;1648105;83;25825;-75
2021/09/18 07:41:20;;;;;;;12.10;8.20;;;;;;;13.37;96.92;100077.16;1601934;84;25863;-75
2021/09/18 07:43:47;;;;;;;12.82;8.75;;;;;;;13.33;96.74;100080.81;1632283;85;28634;-75
2021/09/18 07:46:14;;;;;;;12.75;9.23;;;;;;;13.29;96.68;100082.29;1666514;85;26035;-76
2021/09/18 07:48:41;;;;;;;14.87;11.05;;;;;;;13.23;96.69;100089.88;1591451;85;25804;-75
2021/09/18 07:51:08;;;;;;;16.73;12.43;;;;;;;13.21;96.85;100094.66;1620076;85;25833;-76
2021/09/18 07:53:35;;;;;;;15.30;11.48;;;;;;;13.12;96.35;100094.08;1644298;85;26610;-75
2021/09/18 07:56:02;;;;;;;12.68;9.50;;;;;;;13.05;96.21;100095.97;1668785;85;27445;-76
2021/09/18 07:58:29;;;;;;;12.23;8.90;;;;;;;13.02;96.12;100101.73;1616113;85;26060;-75
2021/09/18 08:00:56;;;;;;;10.53;7.67;;;;;;;13.00;96.11;100097.64;1619977;85;26464;-76
2021/09/18 08:03:23;;;;;;;9.48;7.87;;;;;;;13.00;95.84;100102.47;1639218;86;25755;-75
2021/09/18 08:05:50;;;;;;;9.08;6.85;;;;;;;12.99;95.80;100103.52;1639290;86;25882;-76
2021/09/18 08:08:17;;;;;;;7.87;6.67;;;;;;;12.97;95.58;100110.98;1616186;86;28154;-75
2021/09/18 08:10:44;;;;;;;10.13;7.00;;;;;;;12.92;95.66;100112.64;1614235;86;25873;-75
2021/09/18 08:13:11;;;;;;;7.30;5.78;;;;;;;12.88;95.76;100110.08;1661323;86;25860;-75
2021/09/18 08:15:39;;;;;;;8.00;5.95;;;;;;;12.83;95.38;100116.63;1633590;86;25956;-75
2021/09/18 08:18:07;;;;;;;7.08;6.20;;;;;;;12.78;95.60;100116.44;1614403;86;25838;-76
2021/09/18 08:20:34;;;;;;;7.78;6.12;;;;;;;12.77;96.07;100114.77;1591569;86;27898;-75
2021/09/18 08:23:01;;;;;;;5.85;5.25;;;;;;;12.78;96.13;100121.81;1633265;86;25952;-75
2021/09/18 08:25:29;;;;;;;7.45;5.50;;;;;;;12.77;95.89;100119.64;1661490;84;25816;-75
2021/09/18 08:27:56;;;;;;;6.35;5.72;;;;;;;12.78;96.46;100119.13;1607779;85;25864;-75
2021/09/18 08:30:24;;;;;;;7.15;6.12;;;;;;;12.76;95.69;100124.72;1589450;86;25930;-75
2021/09/18 08:32:51;;;;;;;7.12;6.10;;;;;;;12.74;95.84;100118.73;1636282;86;27594;-75
2021/09/18 08:35:19;;;;;;;8.18;7.15;;;;;;;12.74;95.59;100126.80;1660200;85;25876;-75
2021/09/18 08:37:46;;;;;;;10.08;7.05;;;;;;;12.75;95.85;100131.12;1576924;86;25769;-74
2021/09/18 08:40:13;;;;;;;9.08;6.55;;;;;;;12.76;95.55;100129.27;1633317;85;25839;-76
2021/09/18 08:42:42;;;;;;;8.05;6.65;;;;;;;12.83;96.33;100128.19;1653768;85;25755;-76
2021/09/18 08:45:13;;;;;;;7.60;5.95;;;;;;;12.93;96.67;100126.41;1635478;85;28212;-76
2021/09/18 08:47:42;;;;;;;8.58;6.22;;;;;;;13.01;95.69;100129.68;1596012;85;25803;-76
2021/09/18 08:50:16;;;;;;;7.37;5.62;;;;;;;13.04;95.80;100129.77;1608786;85;25805;-75
2021/09/18 08:52:43;;;;;;;6.00;5.40;;;;;;;13.03;94.91;100134.83;1677093;85;25761;-76
2021/09/18 08:55:11;;;;;;;7.17;5.30;;;;;;;13.01;94.40;100134.22;1673945;85;25824;-76
2021/09/18 08:57:40;;;;;;;5.55;5.00;;;;;;;12.98;94.33;100131.98;1623007;85;28207;-76
2021/09/18 09:00:09;;;;;;;6.50;5.10;;;;;;;12.98;95.11;100141.39;1634364;85;25789;-76
2021/09/18 09:02:39;;;;;;;7.28;5.37;;;;;;;13.03;95.40;100136.17;1665949;85;25609;-76
2021/09/18 09:05:08;;;;;;;5.12;4.62;;;;;;;13.06;95.62;100144.69;1686656;83;25855;-76
2021/09/18 09:07:36;;;;;;;6.30;4.80;;;;;;;13.11;95.54;100141.33;1651816;83;25845;-75
2021/09/18 09:10:06;;;;;;;5.20;4.47;;;;;;;13.08;94.71;100141.27;1623593;83;27420;-76
2021/09/18 09:12:37;;;;;;;5.90;4.67;;;;;;;13.09;95.07;100147.45;1671342;83;34989;-76
2021/09/18 09:15:24;;;;;;;4.22;3.85;;;;;;;13.10;95.06;100149.95;1655937;85;25576;-76
2021/09/18 09:17:52;;;;;;;6.50;3.77;;;;;;;13.06;94.57;100148.73;1648913;85;26459;-76
2021/09/18 09:20:27;;;;;;;3.47;3.10;;;;;;;12.96;94.64;100145.61;1609209;85;26349;-76
2021/09/18 09:22:54;;;;;;;4.65;3.25;;;;;;;12.94;95.24;100148.20;1647684;85;27563;-76
2021/09/18 09:25:28;;;;;;;3.75;3.33;;;;;;;12.96;94.32;100150.98;1679180;85;26554;-75
2021/09/18 09:28:01;;;;;;;3.60;2.90;;;;;;;12.99;94.97;100151.92;1595480;86;41117;-80
2021/09/18 09:30:35;;;;;;;2.80;2.35;;;;;;;13.03;94.59;100146.93;1618748;85;25808;-77
2021/09/18 09:33:09;;;;;;;4.08;2.90;;;;;;;12.97;94.25;100151.31;1676515;84;25784;-77
2021/09/18 09:35:39;;;;;;;4.70;3.98;;;;;;;12.93;94.04;100149.25;1642725;85;26929;-77
2021/09/18 09:38:08;;;;;;;4.53;2.83;;;;;;;12.88;93.95;100157.12;1623079;84;25921;-78
2021/09/18 09:40:44;;;;;;;2.95;2.65;;;;;;;12.81;93.78;100157.14;1648535;85;26582;-77
2021/09/18 09:43:14;;;;;;;2.55;2.27;;;;;;;12.78;94.45;100159.44;1667818;85;25983;-77
2021/09/18 09:45:42;;;;;;;2.33;2.13;;;;;;;12.72;93.26;100158.44;1646535;85;25992;-76
2021/09/18 09:48:16;;;;;;;2.37;2.05;;;;;;;12.60;93.01;100170.02;1610566;85;28770;-77
2021/09/18 09:50:48;;;;;;;4.40;2.02;;;;;;;12.54;93.52;100169.00;1601927;85;25801;-77
2021/09/18 09:53:28;;;;;;;5.20;2.50;;;;;;;12.51;93.50;100161.89;1666659;84;26494;-77
2021/09/18 09:55:56;;;;;;;4.10;1.77;;;;;;;12.49;93.46;100163.42;1670706;85;26560;-77
2021/09/18 09:58:23;;;;;;;2.58;2.22;;;;;;;12.49;93.72;100163.42;1626282;84;25837;-77
2021/09/18 10:00:52;;;;;;;3.10;2.10;;;;;;;12.51;93.57;100160.55;1624358;85;26910;-77
2021/09/18 10:03:27;;;;;;;2.17;1.77;;;;;;;12.49;93.25;100166.11;1648861;85;25774;-77
2021/09/18 10:05:55;;;;;;;3.75;1.82;;;;;;;12.47;93.39;100161.46;1671982;84;26004;-77
2021/09/18 10:08:25;;;;;;;2.30;2.10;;;;;;;12.49;93.60;100162.63;1604423;85;25926;-76
2021/09/18 10:10:53;;;;;;;2.17;1.98;;;;;;;12.46;93.10;100167.89;1597441;85;26413;-77
2021/09/18 10:13:25;;;;;;;2.70;1.67;;;;;;;12.48;93.59;100172.53;1671664;85;27484;-77
2021/09/18 10:15:54;;;;;;;2.85;1.98;;;;;;;12.51;93.34;100172.09;1672279;84;25845;-77
2021/09/18 10:18:23;;;;;;;2.83;2.00;;;;;;;12.53;93.56;100174.59;1648567;85;25811;-77
2021/09/18 10:23:25;;;;;;;1.95;1.75;;;;;;;12.58;93.67;100174.77;1669769;84;25892;-77
2021/09/18 10:25:56;;;;;;;2.55;1.98;;;;;;;12.58;92.93;100174.77;1673267;84;27613;-77
2021/09/18 10:28:31;;;;;;;3.05;1.72;;;;;;;12.54;92.28;100177.58;1626583;84;25364;-77
2021/09/18 10:31:02;;;;;;;1.60;1.50;;;;;;;12.52;92.00;100179.13;1644761;85;26593;-77
2021/09/18 10:33:39;;;;;;;2.83;1.52;;;;;;;12.50;91.92;100174.48;1674330;84;25821;-77
2021/09/18 10:36:17;;;;;;;2.77;1.32;;;;;;;12.50;91.71;100183.06;1667543;84;26556;-78
2021/09/18 10:38:48;;;;;;;2.52;1.40;;;;;;;12.49;92.08;100178.20;1624156;85;27371;-78
2021/09/18 10:41:25;;;;;;;2.22;1.40;;;;;;;12.50;92.36;100179.03;1620718;86;26532;-77
2021/09/18 10:44:01;;;;;;;2.08;1.65;;;;;;;12.53;92.29;100183.45;1638126;85;25842;-78
2021/09/18 10:46:54;;;;;;;2.98;1.30;;;;;;;12.55;92.65;100184.11;1659756;85;25985;-80
2021/09/18 10:49:39;;;;;;;3.62;1.30;;;;;;;12.55;92.44;100194.84;1652518;85;25298;-82
2021/09/18 10:52:28;;;;;;;1.82;1.37;;;;;;;12.52;92.47;100187.20;1645969;84;27436;-76
2021/09/18 10:55:08;;;;;;;1.90;1.70;;;;;;;12.52;92.29;100190.39;1660680;85;26196;-77
2021/09/18 10:57:48;;;;;;;2.85;1.90;;;;;;;12.50;91.68;100194.64;1656314;85;26482;-79
2021/09/18 11:00:26;;;;;;;2.30;1.90;;;;;;;12.44;91.72;100198.67;1659677;85;26270;-79
2021/09/18 11:02:57;;;;;;;3.77;1.80;;;;;;;12.40;91.89;100195.59;1618457;87;25909;-77
2021/09/18 11:05:42;;;;;;;2.00;1.60;;;;;;;12.46;92.23;100199.29;1594526;87;27470;-77
2021/09/18 11:08:19;;;;;;;1.90;1.55;;;;;;;12.49;92.42;100205.61;1631122;87;25831;-77
2021/09/18 11:10:59;;;;;;;2.33;1.55;;;;;;;12.53;92.49;100205.49;1614275;87;25751;-77
2021/09/18 11:13:36;;;;;;;1.40;1.30;;;;;;;12.55;91.96;100204.77;1591695;87;25947;-77
2021/09/18 11:16:10;;;;;;;2.95;1.77;;;;;;;12.55;91.60;100206.11;1635470;87;25748;-76
2021/09/18 11:18:46;;;;;;;3.08;1.80;;;;;;;12.53;91.58;100211.66;1630583;87;27490;-77
2021/09/18 11:21:22;;;;;;;2.40;1.92;;;;;;;12.54;91.35;100207.13;1575401;88;26371;-78
2021/09/18 11:24:03;;;;;;;3.30;1.85;;;;;;;12.55;91.36;100210.97;1556564;88;25911;-75
2021/09/18 11:26:40;;;;;;;4.33;2.10;;;;;;;12.62;91.25;100211.77;1559967;88;26686;-76
2021/09/18 11:29:14;;;;;;;2.40;1.52;;;;;;;12.70;91.33;100208.05;1612427;88;25751;-76
2021/09/18 11:31:55;;;;;;;2.15;1.95;;;;;;;12.80;92.01;100207.08;1590365;88;28119;-76
2021/09/18 11:34:32;;;;;;;2.33;2.12;;;;;;;12.82;90.79;100205.84;1588898;88;25959;-76
2021/09/18 11:37:03;;;;;;;1.98;1.87;;;;;;;12.76;89.54;100206.69;1569579;88;25773;-76
2021/09/18 11:39:51;;;;;;;;;;;;;;;12.72;89.29;100205.47;1590466;88;26675;-76
2021/09/18 11:42:29;;;;;;;2.27;1.82;;;;;;;12.69;89.85;100213.09;1568608;88;26379;-77
2021/09/18 11:45:01;;;;;;;2.62;1.70;;;;;;;12.65;89.86;100214.55;1588756;88;28240;-76
2021/09/18 11:47:37;;;;;;;6.10;1.90;;;;;;;12.59;89.12;100217.58;1591085;88;25854;-76
2021/09/18 11:50:21;;;;;;;1.95;1.72;;;;;;;12.56;89.33;100223.86;1609442;88;25926;-76
2021/09/18 11:52:48;;;;;;;2.15;1.70;;;;;;;12.50;88.24;100218.81;1558014;88;26574;-76
2021/09/18 11:55:38;;;;;;;2.40;1.85;;;;;;;12.45;89.19;100219.11;1590662;88;26008;-75
2021/09/18 11:58:21;;;;;;;2.60;1.52;;;;;;;12.45;89.47;100215.08;1613300;87;28586;-77
2021/09/18 12:00:55;;;;;;;1.55;1.45;;;;;;;12.46;89.88;100222.95;1629942;85;26463;-75
2021/09/18 12:03:34;;;;;;;1.65;1.55;;;;;;;12.45;89.76;100221.80;1594358;89;25885;-75
2021/09/18 12:06:04;;;;;;;2.65;1.50;;;;;;;12.46;90.11;100218.93;1614325;86;26812;-75
2021/09/18 12:08:35;;;;;;;1.32;1.22;;;;;;;12.49;90.09;100219.03;1586419;87;25915;-75
2021/09/18 12:11:10;;;;;;;4.40;1.42;;;;;;;12.48;90.05;100223.58;1622702;87;28239;-75
2021/09/18 12:13:50;;;;;;;1.52;1.30;;;;;;;12.48;90.00;100221.39;1576721;89;25828;-75
2021/09/18 12:16:21;;;;;;;1.67;1.35;;;;;;;12.43;90.03;100231.42;1554964;89;26021;-75
2021/09/18 12:18:52;;;;;;;1.80;1.70;;;;;;;12.35;90.30;100229.78;1592148;88;25956;-75
2021/09/18 12:21:23;;;;;;;2.12;1.50;;;;;;;12.33;90.82;100229.67;1592547;88;25899;-75
2021/09/18 12:24:01;;;;;;;1.65;1.50;;;;;;;12.34;91.61;100229.45;1571913;88;27423;-75
2021/09/18 12:26:34;;;;;;;3.90;1.80;;;;;;;12.29;91.52;100239.19;1592268;88;25791;-75
2021/09/18 12:29:11;;;;;;;2.72;1.47;;;;;;;12.22;91.89;100237.84;1629320;87;25857;-75
2021/09/18 12:31:42;;;;;;;1.90;1.70;;;;;;;12.21;91.84;100230.80;1630989;87;26381;-75
2021/09/18 12:34:12;;;;;;;1.82;1.62;;;;;;;12.18;91.92;100234.42;1575113;87;32573;-75
2021/09/18 12:36:40;;;;;;;2.00;1.45;;;;;;;12.15;92.09;100232.97;1620072;87;27540;-75
2021/09/18 12:39:07;;;;;;;1.92;1.80;;;;;;;12.15;92.39;100232.97;1620112;87;26005;-76